Time;durP1;ratioP1;P1;durP2;ratioP2;P2;SDS_P1;SDS_P2;PMS_P1;PMS_P2;Temp;Humidity;BMP_temperature;BMP_pressure;BME280_temperature;BME280_humidity;BME280_pressure;Samples;Min_cycle;Max_cycle;Signal;HPM_P1;HPM_P2
2023/08/03 00:01:29;;;;;;;2.83;1.20;;;16.50;99.90;;;;;;4843114;29;20549;-84
2023/08/03 00:03:57;;;;;;;1.60;0.80;;;16.60;99.90;;;;;;4843152;29;20185;-86
2023/08/03 00:06:22;;;;;;;1.37;1.10;;;16.60;99.90;;;;;;4842772;29;20229;-88
2023/08/03 00:08:48;;;;;;;1.80;1.20;;;16.60;99.90;;;;;;4843295;29;20440;-84
2023/08/03 00:11:13;;;;;;;1.33;0.97;;;16.70;99.90;;;;;;4842996;29;20608;-84
2023/08/03 00:13:39;;;;;;;1.83;0.80;;;16.80;99.90;;;;;;4842523;29;20259;-86
2023/08/03 00:16:04;;;;;;;1.03;0.93;;;16.90;99.90;;;;;;4843020;29;20241;-84
2023/08/03 00:18:30;;;;;;;1.67;0.90;;;17.00;99.90;;;;;;4844604;29;20260;-84
2023/08/03 00:20:55;;;;;;;1.60;0.70;;;17.00;99.90;;;;;;4846493;29;20199;-83
2023/08/03 00:23:21;;;;;;;0.90;0.73;;;17.00;99.90;;;;;;4846897;29;20551;-89
2023/08/03 00:25:47;;;;;;;1.57;0.90;;;17.10;99.90;;;;;;4847155;29;20617;-90
2023/08/03 00:28:12;;;;;;;1.00;0.70;;;17.20;99.90;;;;;;4846568;29;20657;-89
2023/08/03 00:30:38;;;;;;;1.70;0.77;;;17.30;99.90;;;;;;4845817;29;20557;-84
2023/08/03 00:33:03;;;;;;;2.30;0.80;;;17.30;99.90;;;;;;4846790;29;20319;-86
2023/08/03 00:35:29;;;;;;;0.90;0.70;;;17.20;99.90;;;;;;4829833;29;20193;-84
2023/08/03 00:37:54;;;;;;;4.00;0.70;;;17.20;99.90;;;;;;4830495;29;20196;-83
2023/08/03 00:40:20;;;;;;;1.67;0.70;;;17.20;99.90;;;;;;4846207;29;20224;-83
2023/08/03 00:42:46;;;;;;;2.00;0.90;;;17.20;99.90;;;;;;4829586;29;20185;-83
2023/08/03 00:45:12;;;;;;;2.13;1.20;;;17.20;99.90;;;;;;4846611;29;20396;-81
2023/08/03 00:47:39;;;;;;;1.53;0.73;;;17.30;99.90;;;;;;4846162;29;20548;-83
2023/08/03 00:50:06;;;;;;;2.80;0.93;;;17.40;99.90;;;;;;4846356;29;20487;-83
2023/08/03 00:52:34;;;;;;;1.70;0.90;;;17.40;99.90;;;;;;4846216;29;20437;-86
2023/08/03 00:55:00;;;;;;;1.27;0.80;;;17.40;99.90;;;;;;4846220;29;20490;-85
2023/08/03 00:57:26;;;;;;;3.43;0.90;;;17.50;99.90;;;;;;4845907;29;20405;-84
2023/08/03 00:59:52;;;;;;;1.47;0.90;;;17.50;99.90;;;;;;4845997;29;20457;-84
2023/08/03 01:02:17;;;;;;;0.80;0.60;;;17.40;99.90;;;;;;4846257;29;20461;-82
2023/08/03 01:04:43;;;;;;;4.50;0.90;;;17.50;99.90;;;;;;4845559;29;20421;-84
2023/08/03 01:07:08;;;;;;;3.47;1.07;;;17.60;99.90;;;;;;4845632;29;20236;-84
2023/08/03 01:09:34;;;;;;;2.23;0.83;;;17.50;99.90;;;;;;4845554;29;20229;-81
2023/08/03 01:12:00;;;;;;;1.43;1.00;;;17.30;99.90;;;;;;4845825;29;20193;-84
2023/08/03 01:14:25;;;;;;;2.43;1.00;;;17.10;99.90;;;;;;4845889;29;20372;-85
2023/08/03 01:16:51;;;;;;;1.40;0.90;;;17.10;99.90;;;;;;4845892;29;20193;-83
2023/08/03 01:19:17;;;;;;;1.50;0.97;;;17.00;99.90;;;;;;4845339;29;20181;-82
2023/08/03 01:21:45;;;;;;;1.03;0.77;;;17.10;99.90;;;;;;4845604;29;20429;-85
2023/08/03 01:24:10;;;;;;;2.40;0.90;;;17.10;99.90;;;;;;4845295;29;20185;-86
2023/08/03 01:26:36;;;;;;;5.03;1.00;;;17.10;99.90;;;;;;4845240;29;20426;-84
2023/08/03 01:29:02;;;;;;;1.20;0.73;;;17.10;99.90;;;;;;4845391;29;20208;-83
2023/08/03 01:31:27;;;;;;;1.30;0.70;;;17.10;99.90;;;;;;4845568;29;20645;-85
2023/08/03 01:33:53;;;;;;;1.00;0.80;;;17.10;99.90;;;;;;4814053;29;20204;-83
2023/08/03 01:36:19;;;;;;;2.60;0.97;;;17.20;99.90;;;;;;4845215;29;20185;-84
2023/08/03 01:38:52;;;;;;;2.47;0.90;;;17.10;99.90;;;;;;4828519;29;20189;-83
2023/08/03 01:41:17;;;;;;;1.30;0.87;;;17.20;99.90;;;;;;4845024;29;20196;-82
2023/08/03 01:43:43;;;;;;;3.70;1.23;;;17.10;99.90;;;;;;4845062;29;20429;-82
2023/08/03 01:46:09;;;;;;;1.67;0.90;;;17.20;99.90;;;;;;4845390;29;20185;-84
2023/08/03 01:48:34;;;;;;;3.20;0.80;;;17.10;99.90;;;;;;4845070;29;20649;-83
2023/08/03 01:51:00;;;;;;;1.30;1.00;;;17.10;99.90;;;;;;4844890;29;20629;-83
2023/08/03 01:53:25;;;;;;;2.50;1.30;;;16.90;99.90;;;;;;4845132;29;20195;-84
2023/08/03 01:55:51;;;;;;;0.77;0.70;;;16.90;99.90;;;;;;4828543;29;20189;-84
2023/08/03 01:58:17;;;;;;;1.30;0.60;;;16.90;99.90;;;;;;4828423;29;20197;-85
2023/08/03 02:00:42;;;;;;;1.10;0.70;;;16.90;99.90;;;;;;4845191;29;20189;-83
2023/08/03 02:03:08;;;;;;;4.03;0.73;;;16.90;99.90;;;;;;4845084;29;20185;-84
2023/08/03 02:05:34;;;;;;;1.10;0.80;;;16.90;99.90;;;;;;4844332;29;20248;-83
2023/08/03 02:07:59;;;;;;;1.90;1.00;;;16.80;99.90;;;;;;4844792;29;20181;-85
2023/08/03 02:10:25;;;;;;;3.07;1.03;;;16.80;99.90;;;;;;4844484;29;20217;-85
2023/08/03 02:12:51;;;;;;;2.30;0.93;;;16.70;99.90;;;;;;4844774;29;20549;-84
2023/08/03 02:15:17;;;;;;;1.47;1.00;;;16.80;99.90;;;;;;4844559;29;20666;-84
2023/08/03 02:17:43;;;;;;;2.57;0.80;;;16.70;99.90;;;;;;4844517;29;20426;-84
2023/08/03 02:20:10;;;;;;;2.10;1.03;;;16.80;99.90;;;;;;4844516;29;20422;-85
2023/08/03 02:22:35;;;;;;;2.57;1.30;;;16.70;99.90;;;;;;4844466;29;20456;-85
2023/08/03 02:25:01;;;;;;;3.10;0.93;;;16.70;99.90;;;;;;4844438;29;20479;-83
2023/08/03 02:27:27;;;;;;;1.83;0.90;;;16.70;99.90;;;;;;4844727;29;20295;-83
2023/08/03 02:29:53;;;;;;;2.17;1.10;;;16.60;99.90;;;;;;4844127;29;20916;-83
2023/08/03 02:32:19;;;;;;;3.70;1.10;;;16.60;99.90;;;;;;4844378;29;20192;-84
2023/08/03 02:34:45;;;;;;;1.10;0.70;;;16.60;99.90;;;;;;4843864;29;20201;-85
2023/08/03 02:37:10;;;;;;;2.13;0.87;;;16.70;99.90;;;;;;4844436;29;20784;-83
2023/08/03 02:39:36;;;;;;;5.97;1.27;;;16.80;99.90;;;;;;4827479;29;20650;-84
2023/08/03 02:42:02;;;;;;;3.73;0.80;;;16.80;99.90;;;;;;4827550;29;20197;-84
2023/08/03 02:44:27;;;;;;;6.83;1.23;;;16.90;99.90;;;;;;4827647;29;20189;-84
2023/08/03 02:46:53;;;;;;;1.33;1.00;;;16.90;99.90;;;;;;4844522;29;20267;-81
2023/08/03 02:49:18;;;;;;;0.90;0.60;;;16.90;99.90;;;;;;4844294;29;20267;-82
2023/08/03 02:51:44;;;;;;;5.60;1.07;;;16.90;99.90;;;;;;4844345;29;20185;-81
2023/08/03 02:54:09;;;;;;;3.10;1.07;;;16.90;99.90;;;;;;4845077;29;20638;-81
2023/08/03 02:56:35;;;;;;;1.10;0.73;;;17.00;99.90;;;;;;4843858;29;20212;-81
2023/08/03 02:59:01;;;;;;;2.40;0.80;;;16.90;99.90;;;;;;4844787;29;20181;-80
2023/08/03 03:01:26;;;;;;;2.20;1.00;;;16.90;99.90;;;;;;4844710;29;20189;-80
2023/08/03 03:03:52;;;;;;;0.90;0.70;;;16.90;99.90;;;;;;4844277;29;20312;-81
2023/08/03 03:06:17;;;;;;;0.70;0.60;;;16.90;99.90;;;;;;4844479;29;20237;-82
2023/08/03 03:08:43;;;;;;;0.80;0.77;;;16.90;99.90;;;;;;4844151;29;20195;-81
2023/08/03 03:11:08;;;;;;;3.07;0.90;;;16.90;99.90;;;;;;4844516;29;20576;-80
2023/08/03 03:13:34;;;;;;;0.90;0.60;;;16.80;99.90;;;;;;4844024;29;20214;-81
2023/08/03 03:15:59;;;;;;;1.63;0.80;;;16.70;99.90;;;;;;4844244;29;20184;-80
2023/08/03 03:18:25;;;;;;;1.83;0.80;;;16.70;99.90;;;;;;4843794;29;20185;-81
2023/08/03 03:20:50;;;;;;;2.70;1.53;;;16.70;99.90;;;;;;4844305;29;20629;-81
2023/08/03 03:23:16;;;;;;;1.20;0.70;;;16.80;99.90;;;;;;4844221;29;20206;-80
2023/08/03 03:25:41;;;;;;;0.77;0.63;;;16.70;99.90;;;;;;4844229;29;20201;-81
2023/08/03 03:28:07;;;;;;;3.00;0.80;;;16.60;99.90;;;;;;4844818;29;20189;-80
2023/08/03 03:30:34;;;;;;;1.23;0.70;;;16.50;99.90;;;;;;4827491;29;20327;-81
2023/08/03 03:32:59;;;;;;;1.73;0.73;;;16.40;99.90;;;;;;4844225;29;20466;-80
2023/08/03 03:35:25;;;;;;;1.63;0.90;;;16.40;99.90;;;;;;4844853;29;20246;-80
2023/08/03 03:37:51;;;;;;;1.40;0.90;;;16.30;99.90;;;;;;4843825;29;20195;-80
2023/08/03 03:40:16;;;;;;;0.80;0.70;;;16.30;99.90;;;;;;4843771;29;20212;-84
2023/08/03 03:42:42;;;;;;;1.53;0.60;;;16.30;99.90;;;;;;4844185;29;20243;-80
2023/08/03 03:45:08;;;;;;;1.33;0.60;;;16.30;99.90;;;;;;4844335;29;20241;-80
2023/08/03 03:47:34;;;;;;;1.20;0.70;;;16.30;99.90;;;;;;4844169;29;20189;-83
2023/08/03 03:49:59;;;;;;;3.93;0.90;;;16.30;99.90;;;;;;4843825;29;20530;-81
2023/08/03 03:52:25;;;;;;;0.90;0.60;;;16.20;99.90;;;;;;4843699;29;20192;-81
2023/08/03 03:54:51;;;;;;;1.33;0.60;;;16.30;99.90;;;;;;4843414;29;20446;-81
2023/08/03 03:57:16;;;;;;;1.77;0.87;;;16.20;99.90;;;;;;4843734;29;20260;-81
2023/08/03 03:59:42;;;;;;;1.60;0.80;;;16.20;99.90;;;;;;4844011;29;20185;-81
2023/08/03 04:02:07;;;;;;;0.80;0.60;;;16.10;99.90;;;;;;4827651;29;20230;-80
2023/08/03 04:04:33;;;;;;;1.60;0.80;;;16.20;99.90;;;;;;4843812;29;20237;-80
2023/08/03 04:06:58;;;;;;;1.10;0.80;;;16.20;99.90;;;;;;4843552;29;20239;-81
2023/08/03 04:09:24;;;;;;;2.37;1.10;;;16.10;99.90;;;;;;4843769;29;20247;-80
2023/08/03 04:11:49;;;;;;;1.83;0.90;;;16.20;99.90;;;;;;4827276;29;20208;-80
2023/08/03 04:14:15;;;;;;;2.00;0.87;;;16.20;99.90;;;;;;4827201;29;20276;-80
2023/08/03 04:16:41;;;;;;;2.40;0.70;;;16.20;99.90;;;;;;4843198;29;20684;-81
2023/08/03 04:19:06;;;;;;;1.53;0.60;;;16.30;99.90;;;;;;4843302;29;20275;-80
2023/08/03 04:21:32;;;;;;;1.07;0.70;;;16.30;99.90;;;;;;4843966;29;20642;-82
2023/08/03 04:23:57;;;;;;;0.90;0.73;;;16.30;99.90;;;;;;4843063;29;20189;-81
2023/08/03 04:26:23;;;;;;;1.70;0.60;;;16.30;99.90;;;;;;4843759;29;20192;-81
2023/08/03 04:28:48;;;;;;;1.00;0.70;;;16.20;99.90;;;;;;4843352;29;20216;-81
2023/08/03 04:31:14;;;;;;;1.13;0.60;;;16.30;99.90;;;;;;4843089;29;20274;-81
2023/08/03 04:33:40;;;;;;;2.03;0.70;;;16.30;99.90;;;;;;4843073;29;20193;-81
2023/08/03 04:36:05;;;;;;;0.90;0.60;;;16.30;99.90;;;;;;4843126;29;20189;-82
2023/08/03 04:38:31;;;;;;;1.03;0.60;;;16.40;99.90;;;;;;4843639;29;20622;-81
2023/08/03 04:40:56;;;;;;;1.47;0.63;;;16.40;99.90;;;;;;4842891;29;20193;-81
2023/08/03 04:43:22;;;;;;;0.90;0.60;;;16.40;99.90;;;;;;4827204;29;20195;-81
2023/08/03 04:45:48;;;;;;;3.90;0.60;;;16.50;99.90;;;;;;4843302;29;20664;-81
2023/08/03 04:48:13;;;;;;;0.73;0.70;;;16.50;99.90;;;;;;4843017;29;20201;-81
2023/08/03 04:50:39;;;;;;;0.80;0.60;;;16.50;99.90;;;;;;4842558;29;20215;-82
2023/08/03 04:53:04;;;;;;;1.07;0.50;;;16.50;99.90;;;;;;4843281;29;20213;-81
2023/08/03 04:55:30;;;;;;;1.50;0.60;;;16.60;99.90;;;;;;4842933;29;20597;-82
2023/08/03 04:57:56;;;;;;;0.80;0.60;;;16.60;99.90;;;;;;4843127;29;20192;-81
2023/08/03 05:00:21;;;;;;;1.30;0.70;;;16.60;99.90;;;;;;4843109;29;20185;-81
2023/08/03 05:02:47;;;;;;;1.83;0.50;;;16.70;99.90;;;;;;4842781;29;20553;-82
2023/08/03 05:05:12;;;;;;;1.33;0.63;;;16.70;99.90;;;;;;4845699;29;20316;-84
2023/08/03 05:07:38;;;;;;;0.70;0.50;;;16.70;99.90;;;;;;4846252;29;20241;-81
2023/08/03 05:10:04;;;;;;;0.70;0.50;;;16.70;99.90;;;;;;4846251;29;20250;-83
2023/08/03 05:12:29;;;;;;;0.80;0.50;;;16.70;99.90;;;;;;4846229;29;20530;-80
2023/08/03 05:14:55;;;;;;;0.80;0.53;;;16.70;99.90;;;;;;4845762;29;20192;-81
2023/08/03 05:17:20;;;;;;;0.70;0.50;;;16.80;99.90;;;;;;4846243;29;20193;-81
2023/08/03 05:19:47;;;;;;;1.13;0.60;;;16.90;99.90;;;;;;4846033;29;20653;-81
2023/08/03 05:22:12;;;;;;;0.93;0.60;;;16.90;99.90;;;;;;4828900;29;20677;-82
2023/08/03 05:24:38;;;;;;;0.80;0.57;;;17.00;99.90;;;;;;4846113;29;20430;-81
2023/08/03 05:27:04;;;;;;;0.60;0.50;;;17.10;99.90;;;;;;4829243;29;20418;-81
2023/08/03 05:29:29;;;;;;;1.63;0.60;;;17.00;99.90;;;;;;4845750;29;20227;-81
2023/08/03 05:31:55;;;;;;;1.10;0.50;;;17.10;99.90;;;;;;4845375;29;20776;-81
2023/08/03 05:34:21;;;;;;;0.90;0.60;;;17.20;99.90;;;;;;4846121;29;20245;-81
2023/08/03 05:36:50;;;;;;;1.70;0.70;;;17.20;99.90;;;;;;4845785;29;20185;-81
2023/08/03 05:39:15;;;;;;;1.63;0.70;;;17.20;99.90;;;;;;4845701;29;20199;-81
2023/08/03 05:41:41;;;;;;;1.50;0.60;;;17.20;99.90;;;;;;4845674;29;20434;-81
2023/08/03 05:44:10;;;;;;;1.20;0.60;;;17.30;99.90;;;;;;4845812;29;20193;-82
2023/08/03 05:46:36;;;;;;;2.93;0.70;;;17.40;99.90;;;;;;4845846;29;20210;-81
2023/08/03 05:49:02;;;;;;;1.77;0.70;;;17.50;99.90;;;;;;4844961;29;20418;-82
2023/08/03 05:51:28;;;;;;;2.07;0.77;;;17.40;99.90;;;;;;4845305;29;20192;-82
2023/08/03 05:53:55;;;;;;;0.60;0.50;;;17.40;99.90;;;;;;4844916;29;20589;-81
2023/08/03 05:56:21;;;;;;;0.90;0.73;;;17.40;99.90;;;;;;4845733;29;20422;-81
2023/08/03 05:58:48;;;;;;;2.10;0.60;;;17.40;99.90;;;;;;4845181;29;20418;-83
2023/08/03 06:01:21;;;;;;;1.83;0.60;;;17.40;99.90;;;;;;4844957;29;20433;-86
2023/08/03 06:03:47;;;;;;;1.10;0.60;;;17.40;99.90;;;;;;4844680;29;20751;-83
2023/08/03 06:06:19;;;;;;;2.50;0.80;;;17.40;99.90;;;;;;4845160;29;20462;-83
2023/08/03 06:08:53;;;;;;;1.33;0.60;;;17.40;99.90;;;;;;4844739;29;20664;-81
2023/08/03 06:11:20;;;;;;;1.40;0.70;;;17.50;99.90;;;;;;4828975;29;20480;-81
2023/08/03 06:13:47;;;;;;;1.37;0.60;;;17.50;99.90;;;;;;4845118;29;20531;-82
2023/08/03 06:16:13;;;;;;;1.40;0.60;;;17.50;99.90;;;;;;4843733;29;20422;-81
2023/08/03 06:18:49;;;;;;;0.83;0.53;;;17.50;99.90;;;;;;4828461;29;20537;-82
2023/08/03 06:21:16;;;;;;;1.30;0.70;;;17.60;99.90;;;;;;4844621;29;20411;-83
2023/08/03 06:23:50;;;;;;;1.43;0.60;;;17.60;99.90;;;;;;4844763;29;20887;-82
2023/08/03 06:26:17;;;;;;;0.87;0.50;;;17.60;99.90;;;;;;4828593;29;20964;-82
2023/08/03 06:28:44;;;;;;;1.20;0.70;;;17.60;99.90;;;;;;4844787;29;20453;-83
2023/08/03 06:31:18;;;;;;;1.87;0.90;;;17.60;99.90;;;;;;4844894;29;20904;-83
2023/08/03 06:33:45;;;;;;;1.47;0.70;;;17.60;99.90;;;;;;4844903;29;20434;-84
2023/08/03 06:36:15;;;;;;;1.93;0.70;;;17.50;99.90;;;;;;4845031;29;20850;-81
2023/08/03 06:38:41;;;;;;;1.20;0.60;;;17.40;99.90;;;;;;4844997;29;20807;-82
2023/08/03 06:41:07;;;;;;;1.37;0.70;;;17.20;99.90;;;;;;4844417;29;20422;-83
2023/08/03 06:43:33;;;;;;;1.30;0.80;;;16.90;99.90;;;;;;4828280;29;20426;-84
2023/08/03 06:45:59;;;;;;;3.47;1.03;;;16.70;99.90;;;;;;4844814;29;20823;-86
2023/08/03 06:48:25;;;;;;;3.83;1.10;;;16.50;99.90;;;;;;4845733;29;20858;-85
2023/08/03 06:50:53;;;;;;;1.90;0.70;;;16.40;99.90;;;;;;4844842;29;20251;-86
2023/08/03 06:53:19;;;;;;;1.30;0.97;;;16.30;99.90;;;;;;4844782;29;20927;-86
2023/08/03 06:55:48;;;;;;;1.10;0.80;;;16.20;99.90;;;;;;4844885;29;20457;-85
2023/08/03 06:58:20;;;;;;;2.20;0.90;;;16.10;99.90;;;;;;4844866;29;20646;-87
2023/08/03 07:00:46;;;;;;;1.73;0.80;;;16.00;99.90;;;;;;4844451;29;20410;-85
2023/08/03 07:03:12;;;;;;;3.43;1.00;;;16.00;99.90;;;;;;4844112;29;20759;-84
2023/08/03 07:05:39;;;;;;;3.73;1.20;;;15.90;99.90;;;;;;4843959;29;20485;-84
2023/08/03 07:08:04;;;;;;;2.00;1.03;;;15.90;99.90;;;;;;4827496;29;20426;-84
2023/08/03 07:10:30;;;;;;;1.20;1.10;;;15.80;99.90;;;;;;4827528;29;20484;-84
2023/08/03 07:12:56;;;;;;;1.47;1.00;;;15.80;99.90;;;;;;4827693;29;20716;-83
2023/08/03 07:15:21;;;;;;;2.03;1.07;;;15.80;99.90;;;;;;4844144;29;20184;-84
2023/08/03 07:17:47;;;;;;;2.03;1.17;;;15.80;99.90;;;;;;4844343;29;20293;-85
2023/08/03 07:20:13;;;;;;;1.93;1.00;;;15.90;99.90;;;;;;4812828;29;20283;-86
2023/08/03 07:22:39;;;;;;;1.40;1.13;;;15.90;99.90;;;;;;4844549;29;20456;-85
2023/08/03 07:25:05;;;;;;;2.23;1.10;;;16.00;99.90;;;;;;4844065;29;20810;-85
2023/08/03 07:27:32;;;;;;;2.20;1.03;;;16.00;99.90;;;;;;4828016;29;20467;-85
2023/08/03 07:29:57;;;;;;;2.73;0.93;;;16.10;99.90;;;;;;4827775;29;20576;-84
2023/08/03 07:32:23;;;;;;;3.90;1.17;;;16.20;99.90;;;;;;4812702;29;20508;-85
2023/08/03 07:34:49;;;;;;;1.80;1.40;;;16.20;99.90;;;;;;4844024;29;20625;-85
2023/08/03 07:37:15;;;;;;;3.60;1.23;;;16.20;99.90;;;;;;4843914;29;20453;-86
2023/08/03 07:39:40;;;;;;;4.70;1.20;;;16.30;99.90;;;;;;4843280;29;20195;-84
2023/08/03 07:42:06;;;;;;;1.30;0.90;;;16.40;99.90;;;;;;4843810;29;20197;-86
2023/08/03 07:44:32;;;;;;;2.17;1.00;;;16.60;99.90;;;;;;4843882;29;20237;-85
2023/08/03 07:46:57;;;;;;;2.07;1.13;;;16.60;99.90;;;;;;4827441;29;20418;-84
2023/08/03 07:49:23;;;;;;;3.13;1.27;;;16.70;99.90;;;;;;4844581;29;20228;-87
2023/08/03 07:51:49;;;;;;;2.03;0.90;;;16.80;99.90;;;;;;4828248;29;20193;-86
2023/08/03 07:54:15;;;;;;;1.83;0.90;;;16.80;99.90;;;;;;4843917;29;20622;-85
2023/08/03 07:56:41;;;;;;;2.50;0.90;;;16.90;99.90;;;;;;4828908;29;20216;-89
2023/08/03 07:59:07;;;;;;;6.73;0.90;;;16.90;99.90;;;;;;4844923;29;20914;-88
2023/08/03 08:01:33;;;;;;;2.03;0.80;;;17.00;99.90;;;;;;4844963;29;20196;-86
2023/08/03 08:03:59;;;;;;;1.83;0.80;;;17.00;99.90;;;;;;4827675;29;20426;-89
2023/08/03 08:06:24;;;;;;;3.17;1.00;;;16.90;99.90;;;;;;4827670;29;20722;-89
2023/08/03 08:08:51;;;;;;;2.77;1.20;;;17.00;99.90;;;;;;4843683;29;20426;-87
2023/08/03 08:11:18;;;;;;;1.77;0.93;;;17.00;99.90;;;;;;4843743;29;20213;-89
2023/08/03 08:13:44;;;;;;;2.63;0.80;;;17.10;99.90;;;;;;4827628;29;20450;-85
2023/08/03 08:16:12;;;;;;;0.90;0.70;;;17.10;99.90;;;;;;4827390;29;20433;-83
2023/08/03 08:18:39;;;;;;;2.57;0.70;;;17.10;99.90;;;;;;4828113;29;20426;-86
2023/08/03 08:21:07;;;;;;;1.07;0.73;;;17.20;99.90;;;;;;4843858;29;20421;-87
2023/08/03 08:23:32;;;;;;;1.00;0.83;;;17.30;99.90;;;;;;4843807;29;20418;-84
2023/08/03 08:25:58;;;;;;;1.10;0.80;;;17.30;99.90;;;;;;4843919;29;20761;-84
2023/08/03 08:28:24;;;;;;;1.10;0.70;;;17.30;99.90;;;;;;4827648;29;20185;-85
2023/08/03 08:30:50;;;;;;;4.50;0.90;;;17.30;99.90;;;;;;4844290;29;20212;-87
2023/08/03 08:33:17;;;;;;;1.83;0.90;;;17.20;99.90;;;;;;4846699;29;20789;-89
2023/08/03 08:35:44;;;;;;;1.33;0.90;;;17.20;99.90;;;;;;4844052;29;20445;-85
2023/08/03 08:38:14;;;;;;;1.57;0.90;;;17.20;99.90;;;;;;4842882;29;20417;-85
2023/08/03 08:40:41;;;;;;;0.83;0.80;;;17.20;99.90;;;;;;4846834;29;20392;-84
2023/08/03 08:43:07;;;;;;;3.73;1.20;;;17.20;99.90;;;;;;4830606;29;20385;-86
2023/08/03 08:45:34;;;;;;;0.70;0.60;;;17.20;99.90;;;;;;4815065;29;20412;-87
2023/08/03 08:48:03;;;;;;;1.90;0.80;;;17.30;99.90;;;;;;4847549;29;20465;-86
2023/08/03 08:50:29;;;;;;;2.20;0.63;;;17.20;99.90;;;;;;4847712;29;20470;-87
2023/08/03 08:52:56;;;;;;;1.17;0.90;;;17.10;99.90;;;;;;4847141;29;20445;-87
2023/08/03 08:55:24;;;;;;;2.73;0.70;;;17.00;99.90;;;;;;4830614;29;20203;-86
2023/08/03 08:57:51;;;;;;;3.90;0.90;;;16.90;99.90;;;;;;4846793;29;20826;-83
2023/08/03 09:00:17;;;;;;;1.03;0.80;;;16.90;99.90;;;;;;4846680;29;20466;-88
2023/08/03 09:02:42;;;;;;;1.97;0.73;;;16.90;99.90;;;;;;4830430;29;20982;-88
2023/08/03 09:05:21;;;;;;;0.80;0.63;;;16.80;99.90;;;;;;4830166;29;20478;-86
2023/08/03 09:08:06;;;;;;;1.43;0.83;;;16.90;99.90;;;;;;4847417;29;20181;-85
2023/08/03 09:10:46;;;;;;;0.80;0.63;;;16.90;99.90;;;;;;4846353;29;20477;-88
2023/08/03 09:13:26;;;;;;;0.70;0.60;;;17.00;99.90;;;;;;4846563;29;20801;-88
2023/08/03 09:15:52;;;;;;;1.80;0.80;;;17.30;99.90;;;;;;4846809;29;20417;-87
2023/08/03 09:18:19;;;;;;;1.27;0.70;;;17.40;99.90;;;;;;4831025;29;20416;-87
2023/08/03 09:20:45;;;;;;;0.67;0.50;;;17.60;99.90;;;;;;4830518;29;20416;-88
2023/08/03 09:23:29;;;;;;;2.50;0.77;;;17.70;99.90;;;;;;4815052;29;20407;-84
2023/08/03 09:25:55;;;;;;;0.90;0.70;;;17.80;99.90;;;;;;4846343;29;20217;-88
2023/08/03 09:28:33;;;;;;;2.70;0.70;;;17.90;99.90;;;;;;4800017;29;20419;-86
2023/08/03 09:30:59;;;;;;;1.50;1.10;;;17.90;99.90;;;;;;4846518;29;20216;-89
2023/08/03 09:33:24;;;;;;;1.83;0.70;;;18.00;99.90;;;;;;4829939;29;20841;-88
2023/08/03 09:36:04;;;;;;;2.00;0.83;;;18.10;99.90;;;;;;4846332;29;20193;-85
2023/08/03 09:38:30;;;;;;;2.27;0.80;;;18.20;99.90;;;;;;4846279;29;20188;-86
2023/08/03 09:40:56;;;;;;;4.50;1.30;;;18.30;99.90;;;;;;4846616;29;20418;-88
2023/08/03 09:43:26;;;;;;;1.83;0.90;;;18.50;99.90;;;;;;4829574;29;20928;-88
2023/08/03 09:45:54;;;;;;;1.97;1.00;;;18.60;99.90;;;;;;4829834;29;20490;-88
2023/08/03 09:48:20;;;;;;;2.37;0.90;;;18.70;99.90;;;;;;4846340;29;20422;-89
2023/08/03 09:50:54;;;;;;;1.93;0.90;;;18.90;99.90;;;;;;4846664;29;20538;-88
2023/08/03 09:53:24;;;;;;;3.27;0.90;;;18.90;99.90;;;;;;4846633;29;20521;-89
2023/08/03 09:56:07;;;;;;;3.13;0.87;;;18.90;99.90;;;;;;4829997;29;20421;-90
2023/08/03 09:58:40;;;;;;;1.10;0.80;;;19.30;99.90;;;;;;4846262;29;20404;-89
2023/08/03 10:01:10;;;;;;;1.67;1.07;;;19.10;99.90;;;;;;4831652;29;20434;-88
2023/08/03 10:03:41;;;;;;;1.80;1.20;;;19.00;99.90;;;;;;4846394;29;20412;-87
2023/08/03 10:06:11;;;;;;;3.37;1.33;;;19.20;99.90;;;;;;4846370;29;20523;-92
2023/08/03 10:08:48;;;;;;;3.03;1.33;;;19.50;99.90;;;;;;4829407;29;20441;-86
2023/08/03 10:11:14;;;;;;;3.53;1.30;;;19.40;99.90;;;;;;4845158;29;20477;-88
2023/08/03 10:13:46;;;;;;;2.87;1.27;;;19.20;99.90;;;;;;4845175;29;20396;-86
2023/08/03 10:16:16;;;;;;;2.83;1.30;;;19.00;99.90;;;;;;4845534;29;20738;-87
2023/08/03 10:18:42;;;;;;;2.23;1.10;;;18.90;99.90;;;;;;4845616;29;20442;-88
2023/08/03 10:21:10;;;;;;;3.83;1.20;;;18.90;99.90;;;;;;4829557;29;20964;-86
2023/08/03 10:23:38;;;;;;;3.80;0.90;;;18.90;99.90;;;;;;4845380;29;20927;-85
2023/08/03 10:26:07;;;;;;;2.27;1.20;;;18.90;99.90;;;;;;4845184;29;20426;-85
2023/08/03 10:28:38;;;;;;;3.43;1.00;;;19.20;99.90;;;;;;4845512;29;20449;-87
2023/08/03 10:31:10;;;;;;;3.23;1.17;;;19.40;99.90;;;;;;4845145;29;20455;-86
2023/08/03 10:39:07;;;;;;;3.30;1.03;;;20.00;99.90;;;;;;4845271;29;20456;-92
2023/08/03 10:41:53;;;;;;;7.97;1.70;;;20.50;99.90;;;;;;4845240;29;20488;-89
2023/08/03 10:44:20;;;;;;;7.30;1.47;;;20.80;99.90;;;;;;4828552;29;20416;-84
2023/08/03 10:46:50;;;;;;;1.53;0.80;;;20.90;99.90;;;;;;4845176;29;20778;-86
2023/08/03 10:49:22;;;;;;;4.80;1.17;;;20.50;99.90;;;;;;4844921;29;20422;-84
2023/08/03 10:52:13;;;;;;;4.97;1.47;;;20.30;99.90;;;;;;4844663;29;20422;-86
2023/08/03 10:54:39;;;;;;;3.60;1.10;;;20.00;99.90;;;;;;4845022;29;20414;-83
2023/08/03 10:57:25;;;;;;;2.63;1.50;;;20.30;99.90;;;;;;4844396;29;20412;-86
2023/08/03 10:59:53;;;;;;;3.17;1.23;;;20.40;99.90;;;;;;4828725;29;20404;-85
2023/08/03 11:02:22;;;;;;;5.70;1.97;;;20.20;99.90;;;;;;4843655;29;20494;-84
2023/08/03 11:04:52;;;;;;;4.13;1.43;;;20.10;99.90;;;;;;4828177;29;20482;-89
2023/08/03 11:07:23;;;;;;;4.87;1.67;;;19.70;99.90;;;;;;4844116;29;20432;-88
2023/08/03 11:09:52;;;;;;;4.77;1.60;;;19.70;99.90;;;;;;4827842;29;20572;-88
2023/08/03 11:12:18;;;;;;;9.67;1.63;;;19.90;99.90;;;;;;4843614;29;20393;-88
2023/08/03 11:14:46;;;;;;;1.43;1.33;;;20.40;99.90;;;;;;4827992;29;20862;-85
2023/08/03 11:17:15;;;;;;;6.13;1.70;;;20.70;99.90;;;;;;4827734;29;20964;-85
2023/08/03 11:19:42;;;;;;;7.53;2.00;;;20.60;99.90;;;;;;4845047;29;20822;-91
2023/08/03 11:22:08;;;;;;;2.40;1.20;;;21.00;99.90;;;;;;4844051;29;20438;-85
2023/08/03 11:24:35;;;;;;;3.50;1.20;;;21.20;99.90;;;;;;4827644;29;20871;-86
2023/08/03 11:27:03;;;;;;;4.33;1.10;;;21.40;99.90;;;;;;4844188;29;20460;-85
2023/08/03 11:29:29;;;;;;;2.93;1.40;;;21.60;99.90;;;;;;4844194;29;20481;-85
2023/08/03 11:31:55;;;;;;;4.73;1.03;;;21.40;99.90;;;;;;4843795;29;20788;-88
2023/08/03 11:34:23;;;;;;;2.13;1.00;;;21.50;99.90;;;;;;4843518;29;20421;-85
2023/08/03 11:36:50;;;;;;;4.40;1.30;;;21.60;99.90;;;;;;4843557;29;20188;-87
2023/08/03 11:39:16;;;;;;;1.50;1.40;;;21.20;99.90;;;;;;4843513;29;20484;-84
2023/08/03 11:41:42;;;;;;;2.73;1.13;;;21.40;99.90;;;;;;4846733;29;20501;-87
2023/08/03 11:44:08;;;;;;;8.53;1.33;;;21.90;99.90;;;;;;4812966;29;20188;-85
2023/08/03 11:46:34;;;;;;;4.63;1.90;;;21.60;99.90;;;;;;4843804;29;20426;-86
2023/08/03 11:49:02;;;;;;;1.90;1.50;;;21.30;99.90;;;;;;4843857;29;20196;-85
2023/08/03 11:51:38;;;;;;;1.90;1.10;;;21.20;99.90;;;;;;4843367;29;20477;-90
2023/08/03 11:54:05;;;;;;;3.20;1.30;;;20.80;99.90;;;;;;4844585;29;20436;-86
2023/08/03 11:56:33;;;;;;;2.70;1.23;;;20.50;99.90;;;;;;4848925;29;20401;-87
2023/08/03 11:59:01;;;;;;;2.60;1.03;;;20.40;99.90;;;;;;4843471;29;20475;-84
2023/08/03 12:01:27;;;;;;;4.90;1.67;;;20.30;99.90;;;;;;4843268;29;20458;-83
2023/08/03 12:04:10;;;;;;;2.93;1.23;;;20.70;99.90;;;;;;4843213;29;20856;-85
2023/08/03 12:06:52;;;;;;;2.17;1.10;;;21.40;99.90;;;;;;4843608;29;20498;-85
2023/08/03 12:09:29;;;;;;;2.73;1.23;;;22.20;99.90;;;;;;4843232;29;20369;-85
2023/08/03 12:12:04;;;;;;;2.17;1.30;;;22.20;99.90;;;;;;4843245;29;20404;-81
2023/08/03 12:14:30;;;;;;;3.33;1.20;;;22.00;99.90;;;;;;4845569;29;20436;-84
2023/08/03 12:16:56;;;;;;;4.80;1.20;;;22.50;99.90;;;;;;4846911;29;20393;-85
2023/08/03 12:19:22;;;;;;;1.70;1.17;;;23.10;99.90;;;;;;4846956;29;20762;-86
2023/08/03 12:21:50;;;;;;;2.30;1.17;;;23.50;99.90;;;;;;4830723;29;20193;-87
2023/08/03 12:24:15;;;;;;;4.40;1.03;;;23.60;99.90;;;;;;4846490;29;20553;-84
2023/08/03 12:26:41;;;;;;;2.67;1.00;;;23.50;99.90;;;;;;4846906;29;20414;-92
2023/08/03 12:29:06;;;;;;;2.57;1.00;;;23.80;99.90;;;;;;4829877;29;20181;-83
2023/08/03 12:31:33;;;;;;;4.07;1.67;;;23.80;99.90;;;;;;4846810;29;20757;-86
2023/08/03 12:33:59;;;;;;;3.83;1.50;;;23.10;99.90;;;;;;4830235;29;20220;-83
2023/08/03 12:36:26;;;;;;;8.50;1.60;;;22.20;99.90;;;;;;4846462;29;20421;-83
2023/08/03 12:38:52;;;;;;;5.20;2.40;;;21.80;99.90;;;;;;4846495;29;20437;-85
2023/08/03 12:41:19;;;;;;;5.30;1.20;;;21.60;99.90;;;;;;4829772;29;20936;-83
2023/08/03 12:43:48;;;;;;;2.27;1.33;;;21.90;99.90;;;;;;4846721;29;20422;-81
2023/08/03 12:46:13;;;;;;;2.97;1.40;;;22.10;99.90;;;;;;4845930;29;20425;-91
2023/08/03 12:48:39;;;;;;;2.37;1.40;;;22.20;99.90;;;;;;4846245;29;20417;-87
2023/08/03 12:51:04;;;;;;;3.07;1.37;;;22.30;99.90;;;;;;4846198;29;20681;-85
2023/08/03 12:53:31;;;;;;;2.20;1.27;;;22.30;99.90;;;;;;4846154;29;20216;-85